Nearby METAR Reports

 

KALB - Albany, New York, USA
Distance from station: E 47mi, 75km
Updated: Tue, 17-Jan-2017 7:51am EST
Mostly cloudy
Mostly cloudy
 Wind from calm
Wind: Calm
Temperature: 19°F , -7°C
Dew Point: 18°F , -8°C
Humidity: 93%
Barometer: 30.24 inHg , 1024 hPa
Clouds: Mostly cloudy
Visibility: 10 miles , 16 km
Cloud details: Partly cloudy 15000 ft
Partly cloudy 21000 ft
Mostly cloudy 26000 ft
2017/01/17 12:51 KALB 171251Z 00000KT 10SM SCT150 SCT210 BKN260 M07/M08 A3024 RMK AO2 SLP245 T10671083
KSLK - Saranac Lake, New York, USA
Distance from station: N 110mi, 177km
Updated: Tue, 17-Jan-2017 7:51am EST
Clear
Clear
 Wind from calm
Wind: Calm
Temperature: 7°F , -14°C
Dew Point: 3°F , -16°C
Humidity: 85%
Barometer: 30.15 inHg , 1021 hPa
Clouds: Clear
Visibility: 10 miles , 16 km
2017/01/17 12:51 KSLK 171251Z AUTO 00000KT 10SM CLR M14/M16 A3015 RMK AO2 SLP242 T11391161
 
KSYR - Syracuse, New York, USA
Distance from station: W 73mi, 117km
Updated: Tue, 17-Jan-2017 6:54am EST
Mostly cloudy
Mostly cloudy
 Wind from E
Wind: E 5 mph , 7 km/h
Temperature: 27°F , -3°C
Wind Chill: 21°F , -6°C
Dew Point: 21°F , -6°C
Humidity: 80%
Barometer: 30.16 inHg , 1021.3 hPa
Clouds: Mostly cloudy
Visibility: 10 miles , 16 km
Cloud details: Partly cloudy 5000 ft
Mostly cloudy 10000 ft
2017/01/17 11:54 KSYR 171154Z 08004KT 10SM SCT050 BKN100 M03/M06 A3016 RMK AO2 SLP216 T10331056 11022 21039 56014
KBGM - Binghamton, New York, USA
Distance from station: SW 78mi, 126km
Updated: Tue, 17-Jan-2017 6:53am EST
Overcast
Overcast
 Wind from SE
Wind: SE 6 mph , 9 km/h
Temperature: 30°F , -1°C
Wind Chill: 24°F , -4°C
Dew Point: 27°F , -3°C
Humidity: 86%
Barometer: 30.12 inHg , 1020 hPa
Clouds: Overcast
Visibility: 8 miles , 13 km
Cloud details: Mostly cloudy 5500 ft
Overcast 10000 ft
2017/01/17 11:53 KBGM 171153Z 13005KT 8SM BKN055 OVC100 M01/M03 A3012 RMK AO2 SLP217 T10111033 10000 21017 58009 $
 
KRME - Rome, New York, USA
Distance from station: WNW 43mi, 69km
Updated: Tue, 17-Jan-2017 6:53am EST
Clear
Clear
 Wind from calm
Wind: Calm
Temperature: 19°F , -7°C
Dew Point: 18°F , -8°C
Humidity: 93%
Barometer: 30.21 inHg , 1023 hPa
Clouds: Clear
Visibility: 10 miles , 16 km
2017/01/17 11:53 KRME 171153Z 00000KT 10SM CLR M07/M08 A3021 RMK AO2 SLP236 T10721083 11061 21078 56006
KJFK - New York, New York, USA
Distance from station: SSE 159mi, 256km
Updated: Tue, 17-Jan-2017 7:51am EST
Overcast
Overcast
 Wind from SW
Wind: SW 6 mph , 9 km/h
Temperature: 41°F , 5°C
Wind Chill: 37°F , 3°C
Dew Point: 27°F , -3°C
Humidity: 57%
Barometer: 30.23 inHg , 1023.7 hPa
Clouds: Overcast
Visibility: 10 miles , 16 km
Cloud details: Mostly cloudy 2600 ft
Overcast 4500 ft
2017/01/17 12:51 KJFK 171251Z 23005KT 10SM BKN026 OVC045 05/M03 A3023 RMK AO2 SLP237 T00501028
 
KROC - Rochester, New York, USA
Distance from station: W 150mi, 242km
Updated: Tue, 17-Jan-2017 6:54am EST
Overcast
Overcast
 Wind from E
Wind: E 6 mph , 9 km/h
Temperature: 36°F , 2°C
Wind Chill: 31°F , -1°C
Dew Point: 25°F , -4°C
Humidity: 65%
Barometer: 30.12 inHg , 1020 hPa
Clouds: Overcast
Visibility: 10 miles , 16 km
Cloud details: Mostly cloudy 4600 ft
Mostly cloudy 6500 ft
Overcast 9000 ft
2017/01/17 11:54 KROC 171154Z 08005KT 10SM BKN046 BKN065 OVC090 02/M04 A3012 RMK AO2 SLP208 60000 T00171039 10022 20006 58019
KART - Watertown, New York, USA
Distance from station: NNW 103mi, 166km
Updated: Tue, 17-Jan-2017 6:56am EST
Mist, Clear
Mist, Clear
 Wind from E
Wind: E 5 mph , 7 km/h
Temperature: 21°F , -6°C
Wind Chill: 14°F , -10°C
Dew Point: 19°F , -7°C
Humidity: 93%
Barometer: 30.18 inHg , 1022 hPa
Summary: Mist
Clouds: Clear
Visibility: 5 miles , 8 km
2017/01/17 11:56 KART 171156Z AUTO 08004KT 5SM BR CLR M06/M07 A3018 RMK AO2 SLP226 I6000 T10561067 11056 21083 56013 $
 
KELM - Elmira-Corning, New York, USA
Distance from station: SSW 121mi, 195km
Updated: Tue, 17-Jan-2017 6:53am EST
Overcast
Overcast
 Wind from NNE
Wind: NNE 6 mph , 9 km/h
Temperature: 36°F , 2°C
Wind Chill: 31°F , -1°C
Dew Point: 27°F , -3°C
Humidity: 70%
Barometer: 30.13 inHg , 1020.3 hPa
Clouds: Overcast
Visibility: 10 miles , 16 km
Cloud details: Mostly cloudy 2500 ft
Overcast 3200 ft
2017/01/17 11:53 KELM 171153Z 03005KT 10SM BKN025 OVC032 02/M03 A3013 RMK AO2 SLP211 T00171028 10017 21006 58016
KJHW - Jamestown, New York, USA
Distance from station: SW 238mi, 383km
Updated: Tue, 17-Jan-2017 7:35am EST
Overcast
Overcast
 Wind from SSE
Wind: SSE 6 mph , 9 km/h
Temperature: 37°F , 3°C
Wind Chill: 32°F , 0°C
Dew Point: 36°F , 2°C
Humidity: 93%
Barometer: 29.96 inHg , 1014.6 hPa
Clouds: Overcast
Visibility: 1 3/4 miles , 5 km
Cloud details: Overcast 200 ft
2017/01/17 12:35 KJHW 171235Z AUTO 15005KT 1 3/4SM OVC002 03/02 A2996 RMK AO1
 
KMSS - Massena, New York, USA
Distance from station: N 141mi, 232km
Updated: Tue, 17-Jan-2017 6:53am EST
Clear
Clear
 Wind from calm
Wind: Calm
Temperature: 18°F , -8°C
Dew Point: 16°F , -9°C
Humidity: 93%
Barometer: 30.25 inHg , 1024.4 hPa
Clouds: Clear
Visibility: 7 miles , 11 km
2017/01/17 11:53 KMSS 171153Z AUTO 00000KT 7SM CLR M08/M09 A3025 RMK AO2 SLP251 I1000 I6000 T10781094 11022 21083 53004 $
KBUF - Buffalo, New York, USA
Distance from station: W 204mi, 328km
Updated: Tue, 17-Jan-2017 7:40am EST
Light rain, Overcast
Light rain, Overcast
 Wind from E
Wind: E 13 mph , 20 km/h
Temperature: 36°F , 2°C
Wind Chill: 27°F , -3°C
Dew Point: 30°F , -1°C
Humidity: 81%
Barometer: 29.99 inHg , 1015.6 hPa
Summary: Light rain
Clouds: Overcast
Visibility: 10 miles , 16 km
Cloud details: Partly cloudy 2100 ft
Partly cloudy 3200 ft
Overcast 7500 ft
2017/01/17 12:40 KBUF 171240Z 08011KT 10SM -RA SCT021 SCT032 OVC075 02/M01 A2999 RMK AO2 P0001 T00221006